sensor_id;sensor_type;location;lat;lon;timestamp;P1;durP1;ratioP1;P2;durP2;ratioP2
13461;SDS011;6803;45.264;5.468;2022-12-05T00:00:32;58.53;;;16.30;;
13461;SDS011;6803;45.264;5.468;2022-12-05T00:03:03;104.93;;;17.33;;
13461;SDS011;6803;45.264;5.468;2022-12-05T00:05:34;87.87;;;17.30;;
13461;SDS011;6803;45.264;5.468;2022-12-05T00:08:16;51.47;;;16.07;;
13461;SDS011;6803;45.264;5.468;2022-12-05T00:10:47;43.40;;;15.47;;
13461;SDS011;6803;45.264;5.468;2022-12-05T00:13:17;37.17;;;14.77;;
13461;SDS011;6803;45.264;5.468;2022-12-05T00:15:48;50.17;;;16.83;;
13461;SDS011;6803;45.264;5.468;2022-12-05T00:18:19;54.60;;;17.47;;
13461;SDS011;6803;45.264;5.468;2022-12-05T00:20:49;43.80;;;17.27;;
13461;SDS011;6803;45.264;5.468;2022-12-05T00:23:20;98.13;;;17.40;;
13461;SDS011;6803;45.264;5.468;2022-12-05T00:25:51;59.83;;;18.07;;
13461;SDS011;6803;45.264;5.468;2022-12-05T00:28:21;40.13;;;16.67;;
13461;SDS011;6803;45.264;5.468;2022-12-05T00:30:52;49.17;;;16.83;;
13461;SDS011;6803;45.264;5.468;2022-12-05T00:33:22;40.23;;;15.73;;
13461;SDS011;6803;45.264;5.468;2022-12-05T00:35:53;34.63;;;14.93;;
13461;SDS011;6803;45.264;5.468;2022-12-05T00:38:24;39.03;;;14.87;;
13461;SDS011;6803;45.264;5.468;2022-12-05T00:40:54;35.00;;;15.57;;
13461;SDS011;6803;45.264;5.468;2022-12-05T00:43:27;169.90;;;21.30;;
13461;SDS011;6803;45.264;5.468;2022-12-05T00:46:00;49.90;;;17.50;;
13461;SDS011;6803;45.264;5.468;2022-12-05T00:48:31;51.40;;;17.33;;
13461;SDS011;6803;45.264;5.468;2022-12-05T00:51:02;71.07;;;17.90;;
13461;SDS011;6803;45.264;5.468;2022-12-05T00:53:35;55.30;;;17.40;;
13461;SDS011;6803;45.264;5.468;2022-12-05T00:56:07;38.90;;;15.83;;
13461;SDS011;6803;45.264;5.468;2022-12-05T00:58:39;43.20;;;17.63;;
13461;SDS011;6803;45.264;5.468;2022-12-05T01:01:11;51.97;;;17.47;;
13461;SDS011;6803;45.264;5.468;2022-12-05T01:03:43;47.77;;;17.37;;
13461;SDS011;6803;45.264;5.468;2022-12-05T01:06:15;47.50;;;17.67;;
13461;SDS011;6803;45.264;5.468;2022-12-05T01:08:46;56.80;;;18.00;;
13461;SDS011;6803;45.264;5.468;2022-12-05T01:11:17;52.10;;;16.87;;
13461;SDS011;6803;45.264;5.468;2022-12-05T01:13:48;87.57;;;15.13;;
13461;SDS011;6803;45.264;5.468;2022-12-05T01:16:22;74.83;;;15.20;;
13461;SDS011;6803;45.264;5.468;2022-12-05T01:18:54;63.27;;;14.20;;
13461;SDS011;6803;45.264;5.468;2022-12-05T01:21:26;269.97;;;19.70;;
13461;SDS011;6803;45.264;5.468;2022-12-05T01:23:57;298.90;;;20.20;;
13461;SDS011;6803;45.264;5.468;2022-12-05T01:26:28;352.83;;;23.77;;
13461;SDS011;6803;45.264;5.468;2022-12-05T01:28:59;139.43;;;15.47;;
13461;SDS011;6803;45.264;5.468;2022-12-05T01:31:30;42.33;;;12.67;;
13461;SDS011;6803;45.264;5.468;2022-12-05T01:34:07;27.80;;;12.20;;
13461;SDS011;6803;45.264;5.468;2022-12-05T01:36:36;25.27;;;12.60;;
13461;SDS011;6803;45.264;5.468;2022-12-05T01:39:07;21.60;;;10.97;;
13461;SDS011;6803;45.264;5.468;2022-12-05T01:41:40;37.93;;;12.57;;
13461;SDS011;6803;45.264;5.468;2022-12-05T01:47:18;245.47;;;17.43;;
13461;SDS011;6803;45.264;5.468;2022-12-05T01:49:52;379.97;;;22.27;;
13461;SDS011;6803;45.264;5.468;2022-12-05T01:52:25;409.10;;;25.00;;
13461;SDS011;6803;45.264;5.468;2022-12-05T01:54:59;571.93;;;29.30;;
13461;SDS011;6803;45.264;5.468;2022-12-05T01:57:33;292.17;;;22.03;;
13461;SDS011;6803;45.264;5.468;2022-12-05T02:00:07;279.67;;;21.23;;
13461;SDS011;6803;45.264;5.468;2022-12-05T02:02:40;500.77;;;27.63;;
13461;SDS011;6803;45.264;5.468;2022-12-05T02:05:15;267.40;;;23.63;;
13461;SDS011;6803;45.264;5.468;2022-12-05T02:07:47;225.03;;;22.33;;
13461;SDS011;6803;45.264;5.468;2022-12-05T02:10:19;162.80;;;23.90;;
13461;SDS011;6803;45.264;5.468;2022-12-05T02:12:49;232.47;;;22.80;;
13461;SDS011;6803;45.264;5.468;2022-12-05T02:15:23;177.63;;;19.07;;
13461;SDS011;6803;45.264;5.468;2022-12-05T02:18:00;162.23;;;18.20;;
13461;SDS011;6803;45.264;5.468;2022-12-05T02:20:39;107.57;;;16.37;;
13461;SDS011;6803;45.264;5.468;2022-12-05T02:23:21;130.40;;;19.17;;
13461;SDS011;6803;45.264;5.468;2022-12-05T02:32:46;146.83;;;16.33;;
13461;SDS011;6803;45.264;5.468;2022-12-05T02:35:36;273.77;;;16.77;;
13461;SDS011;6803;45.264;5.468;2022-12-05T02:38:13;273.60;;;17.10;;
13461;SDS011;6803;45.264;5.468;2022-12-05T02:40:48;179.53;;;15.53;;
13461;SDS011;6803;45.264;5.468;2022-12-05T02:43:21;164.30;;;17.27;;
13461;SDS011;6803;45.264;5.468;2022-12-05T02:48:46;234.87;;;18.03;;
13461;SDS011;6803;45.264;5.468;2022-12-05T02:51:20;382.30;;;19.90;;
13461;SDS011;6803;45.264;5.468;2022-12-05T02:53:52;191.37;;;17.40;;
13461;SDS011;6803;45.264;5.468;2022-12-05T02:56:25;137.07;;;13.43;;
13461;SDS011;6803;45.264;5.468;2022-12-05T02:58:57;153.60;;;14.60;;
13461;SDS011;6803;45.264;5.468;2022-12-05T03:01:30;175.23;;;14.97;;
13461;SDS011;6803;45.264;5.468;2022-12-05T03:04:02;182.13;;;15.57;;
13461;SDS011;6803;45.264;5.468;2022-12-05T03:06:36;161.20;;;14.20;;
13461;SDS011;6803;45.264;5.468;2022-12-05T03:09:10;241.17;;;19.83;;
13461;SDS011;6803;45.264;5.468;2022-12-05T03:11:43;284.17;;;14.93;;
13461;SDS011;6803;45.264;5.468;2022-12-05T03:14:18;224.17;;;18.30;;
13461;SDS011;6803;45.264;5.468;2022-12-05T03:16:51;225.70;;;15.60;;
13461;SDS011;6803;45.264;5.468;2022-12-05T03:19:25;155.27;;;15.20;;
13461;SDS011;6803;45.264;5.468;2022-12-05T03:21:59;143.43;;;18.33;;
13461;SDS011;6803;45.264;5.468;2022-12-05T03:24:31;261.43;;;19.77;;
13461;SDS011;6803;45.264;5.468;2022-12-05T03:27:06;241.10;;;20.47;;
13461;SDS011;6803;45.264;5.468;2022-12-05T03:29:39;219.43;;;18.57;;
13461;SDS011;6803;45.264;5.468;2022-12-05T03:32:14;213.57;;;18.33;;
13461;SDS011;6803;45.264;5.468;2022-12-05T03:34:48;175.63;;;16.87;;
13461;SDS011;6803;45.264;5.468;2022-12-05T03:37:25;222.40;;;17.77;;
13461;SDS011;6803;45.264;5.468;2022-12-05T03:40:02;366.43;;;20.40;;
13461;SDS011;6803;45.264;5.468;2022-12-05T03:42:35;630.93;;;27.97;;
13461;SDS011;6803;45.264;5.468;2022-12-05T03:45:09;360.30;;;20.97;;
13461;SDS011;6803;45.264;5.468;2022-12-05T03:47:44;368.87;;;21.30;;
13461;SDS011;6803;45.264;5.468;2022-12-05T03:50:19;751.40;;;31.13;;
13461;SDS011;6803;45.264;5.468;2022-12-05T03:52:53;687.70;;;29.67;;
13461;SDS011;6803;45.264;5.468;2022-12-05T03:55:29;679.40;;;35.57;;
13461;SDS011;6803;45.264;5.468;2022-12-05T03:58:04;558.93;;;25.23;;
13461;SDS011;6803;45.264;5.468;2022-12-05T04:00:38;512.13;;;22.17;;
13461;SDS011;6803;45.264;5.468;2022-12-05T04:03:11;538.27;;;24.17;;
13461;SDS011;6803;45.264;5.468;2022-12-05T04:05:47;346.90;;;18.47;;
13461;SDS011;6803;45.264;5.468;2022-12-05T04:11:11;279.07;;;17.37;;
13461;SDS011;6803;45.264;5.468;2022-12-05T04:13:44;231.17;;;15.80;;
13461;SDS011;6803;45.264;5.468;2022-12-05T04:16:19;253.27;;;16.13;;
13461;SDS011;6803;45.264;5.468;2022-12-05T04:19:10;185.53;;;13.77;;
13461;SDS011;6803;45.264;5.468;2022-12-05T04:21:45;157.67;;;14.27;;
13461;SDS011;6803;45.264;5.468;2022-12-05T04:24:18;125.63;;;14.07;;
13461;SDS011;6803;45.264;5.468;2022-12-05T04:27:11;111.93;;;13.87;;
13461;SDS011;6803;45.264;5.468;2022-12-05T04:29:51;178.50;;;13.80;;
13461;SDS011;6803;45.264;5.468;2022-12-05T04:32:25;268.67;;;16.40;;
13461;SDS011;6803;45.264;5.468;2022-12-05T04:34:57;253.27;;;15.60;;
13461;SDS011;6803;45.264;5.468;2022-12-05T04:37:31;193.47;;;15.40;;
13461;SDS011;6803;45.264;5.468;2022-12-05T04:40:05;178.90;;;17.03;;
13461;SDS011;6803;45.264;5.468;2022-12-05T04:42:39;142.60;;;12.87;;
13461;SDS011;6803;45.264;5.468;2022-12-05T04:45:14;471.43;;;23.23;;
13461;SDS011;6803;45.264;5.468;2022-12-05T04:47:47;369.70;;;22.13;;
13461;SDS011;6803;45.264;5.468;2022-12-05T04:50:20;482.00;;;22.93;;
13461;SDS011;6803;45.264;5.468;2022-12-05T04:52:54;429.40;;;22.63;;
13461;SDS011;6803;45.264;5.468;2022-12-05T04:55:27;628.83;;;26.67;;
13461;SDS011;6803;45.264;5.468;2022-12-05T04:58:03;594.47;;;27.43;;
13461;SDS011;6803;45.264;5.468;2022-12-05T05:00:38;218.90;;;18.17;;
13461;SDS011;6803;45.264;5.468;2022-12-05T05:03:12;158.40;;;15.13;;
13461;SDS011;6803;45.264;5.468;2022-12-05T05:05:45;373.10;;;17.60;;
13461;SDS011;6803;45.264;5.468;2022-12-05T05:08:19;302.50;;;18.37;;
13461;SDS011;6803;45.264;5.468;2022-12-05T05:10:53;312.70;;;16.87;;
13461;SDS011;6803;45.264;5.468;2022-12-05T05:13:27;191.33;;;16.80;;
13461;SDS011;6803;45.264;5.468;2022-12-05T05:15:58;133.83;;;14.07;;
13461;SDS011;6803;45.264;5.468;2022-12-05T05:18:29;392.47;;;26.33;;
13461;SDS011;6803;45.264;5.468;2022-12-05T05:21:00;191.80;;;18.50;;
13461;SDS011;6803;45.264;5.468;2022-12-05T05:23:31;130.10;;;15.63;;
13461;SDS011;6803;45.264;5.468;2022-12-05T05:28:51;271.67;;;17.93;;
13461;SDS011;6803;45.264;5.468;2022-12-05T05:31:22;372.27;;;23.20;;
13461;SDS011;6803;45.264;5.468;2022-12-05T05:33:54;229.07;;;19.77;;
13461;SDS011;6803;45.264;5.468;2022-12-05T05:36:27;293.47;;;21.27;;
13461;SDS011;6803;45.264;5.468;2022-12-05T05:38:59;585.07;;;34.30;;
13461;SDS011;6803;45.264;5.468;2022-12-05T05:41:31;1246.37;;;39.93;;
13461;SDS011;6803;45.264;5.468;2022-12-05T05:44:04;703.00;;;34.87;;
13461;SDS011;6803;45.264;5.468;2022-12-05T05:46:35;692.80;;;33.77;;
13461;SDS011;6803;45.264;5.468;2022-12-05T05:49:06;475.70;;;27.23;;
13461;SDS011;6803;45.264;5.468;2022-12-05T05:54:16;541.83;;;28.27;;
13461;SDS011;6803;45.264;5.468;2022-12-05T05:56:46;233.07;;;23.40;;
13461;SDS011;6803;45.264;5.468;2022-12-05T05:59:17;316.33;;;26.93;;
13461;SDS011;6803;45.264;5.468;2022-12-05T06:01:47;185.13;;;23.03;;
13461;SDS011;6803;45.264;5.468;2022-12-05T06:04:18;103.73;;;23.03;;
13461;SDS011;6803;45.264;5.468;2022-12-05T06:06:49;77.83;;;21.50;;
13461;SDS011;6803;45.264;5.468;2022-12-05T06:09:19;86.67;;;21.47;;
13461;SDS011;6803;45.264;5.468;2022-12-05T06:11:50;74.67;;;22.57;;
13461;SDS011;6803;45.264;5.468;2022-12-05T06:14:21;92.97;;;23.10;;
13461;SDS011;6803;45.264;5.468;2022-12-05T06:16:51;77.13;;;21.60;;
13461;SDS011;6803;45.264;5.468;2022-12-05T06:19:22;58.13;;;22.00;;
13461;SDS011;6803;45.264;5.468;2022-12-05T06:21:53;84.57;;;22.10;;
13461;SDS011;6803;45.264;5.468;2022-12-05T06:24:23;77.47;;;23.20;;
13461;SDS011;6803;45.264;5.468;2022-12-05T06:26:54;71.43;;;21.10;;
13461;SDS011;6803;45.264;5.468;2022-12-05T06:29:25;58.67;;;21.27;;
13461;SDS011;6803;45.264;5.468;2022-12-05T06:31:57;53.97;;;21.60;;
13461;SDS011;6803;45.264;5.468;2022-12-05T06:34:28;60.43;;;21.60;;
13461;SDS011;6803;45.264;5.468;2022-12-05T06:36:59;64.27;;;22.57;;
13461;SDS011;6803;45.264;5.468;2022-12-05T06:39:31;63.77;;;21.60;;
13461;SDS011;6803;45.264;5.468;2022-12-05T06:42:01;63.90;;;22.33;;
13461;SDS011;6803;45.264;5.468;2022-12-05T06:44:32;62.50;;;22.53;;
13461;SDS011;6803;45.264;5.468;2022-12-05T06:47:03;57.13;;;20.80;;
13461;SDS011;6803;45.264;5.468;2022-12-05T06:49:34;59.03;;;21.83;;
13461;SDS011;6803;45.264;5.468;2022-12-05T06:52:05;63.70;;;21.97;;
13461;SDS011;6803;45.264;5.468;2022-12-05T06:54:35;54.97;;;21.40;;
13461;SDS011;6803;45.264;5.468;2022-12-05T06:57:06;57.30;;;21.40;;
13461;SDS011;6803;45.264;5.468;2022-12-05T06:59:37;70.83;;;22.57;;
13461;SDS011;6803;45.264;5.468;2022-12-05T07:02:08;150.07;;;26.90;;
13461;SDS011;6803;45.264;5.468;2022-12-05T07:04:41;123.90;;;24.40;;
13461;SDS011;6803;45.264;5.468;2022-12-05T07:07:12;98.77;;;23.73;;
13461;SDS011;6803;45.264;5.468;2022-12-05T07:09:43;175.27;;;23.10;;
13461;SDS011;6803;45.264;5.468;2022-12-05T07:12:15;122.67;;;24.83;;
13461;SDS011;6803;45.264;5.468;2022-12-05T07:14:47;64.23;;;20.90;;
13461;SDS011;6803;45.264;5.468;2022-12-05T07:17:17;62.90;;;20.63;;
13461;SDS011;6803;45.264;5.468;2022-12-05T07:19:49;81.63;;;21.37;;
13461;SDS011;6803;45.264;5.468;2022-12-05T07:22:21;63.63;;;21.60;;
13461;SDS011;6803;45.264;5.468;2022-12-05T07:24:52;64.00;;;21.63;;
13461;SDS011;6803;45.264;5.468;2022-12-05T07:27:22;64.77;;;23.33;;
13461;SDS011;6803;45.264;5.468;2022-12-05T07:29:55;74.33;;;22.07;;
13461;SDS011;6803;45.264;5.468;2022-12-05T07:32:26;67.73;;;21.60;;
13461;SDS011;6803;45.264;5.468;2022-12-05T07:35:00;63.77;;;21.17;;
13461;SDS011;6803;45.264;5.468;2022-12-05T07:37:31;57.13;;;22.37;;
13461;SDS011;6803;45.264;5.468;2022-12-05T07:40:01;71.73;;;22.70;;
13461;SDS011;6803;45.264;5.468;2022-12-05T07:42:33;71.00;;;21.67;;
13461;SDS011;6803;45.264;5.468;2022-12-05T07:45:05;66.57;;;22.00;;
13461;SDS011;6803;45.264;5.468;2022-12-05T07:47:38;63.23;;;22.93;;
13461;SDS011;6803;45.264;5.468;2022-12-05T07:50:09;60.90;;;21.30;;
13461;SDS011;6803;45.264;5.468;2022-12-05T07:52:40;68.53;;;22.20;;
13461;SDS011;6803;45.264;5.468;2022-12-05T07:55:11;53.50;;;20.93;;
13461;SDS011;6803;45.264;5.468;2022-12-05T07:57:42;61.93;;;21.57;;
13461;SDS011;6803;45.264;5.468;2022-12-05T08:00:14;58.17;;;20.80;;
13461;SDS011;6803;45.264;5.468;2022-12-05T08:02:46;59.53;;;21.53;;
13461;SDS011;6803;45.264;5.468;2022-12-05T08:05:17;66.00;;;22.80;;
13461;SDS011;6803;45.264;5.468;2022-12-05T08:07:47;70.83;;;24.17;;
13461;SDS011;6803;45.264;5.468;2022-12-05T08:10:18;100.07;;;24.87;;
13461;SDS011;6803;45.264;5.468;2022-12-05T08:12:49;74.70;;;23.87;;
13461;SDS011;6803;45.264;5.468;2022-12-05T08:15:19;93.07;;;24.27;;
13461;SDS011;6803;45.264;5.468;2022-12-05T08:17:50;63.83;;;22.13;;
13461;SDS011;6803;45.264;5.468;2022-12-05T08:20:21;74.93;;;24.13;;
13461;SDS011;6803;45.264;5.468;2022-12-05T08:22:51;69.43;;;23.33;;
13461;SDS011;6803;45.264;5.468;2022-12-05T08:25:22;84.23;;;24.60;;
13461;SDS011;6803;45.264;5.468;2022-12-05T08:27:53;68.10;;;22.67;;
13461;SDS011;6803;45.264;5.468;2022-12-05T08:30:23;66.37;;;21.13;;
13461;SDS011;6803;45.264;5.468;2022-12-05T08:32:54;135.63;;;25.47;;
13461;SDS011;6803;45.264;5.468;2022-12-05T08:35:25;471.20;;;34.23;;
13461;SDS011;6803;45.264;5.468;2022-12-05T08:37:55;110.87;;;25.63;;
13461;SDS011;6803;45.264;5.468;2022-12-05T08:40:26;248.33;;;28.63;;
13461;SDS011;6803;45.264;5.468;2022-12-05T08:42:58;153.43;;;26.53;;
13461;SDS011;6803;45.264;5.468;2022-12-05T08:45:28;233.37;;;28.97;;
13461;SDS011;6803;45.264;5.468;2022-12-05T08:47:59;173.23;;;28.13;;
13461;SDS011;6803;45.264;5.468;2022-12-05T08:50:29;368.40;;;34.17;;
13461;SDS011;6803;45.264;5.468;2022-12-05T08:53:00;331.80;;;41.60;;
13461;SDS011;6803;45.264;5.468;2022-12-05T08:55:30;137.23;;;38.03;;
13461;SDS011;6803;45.264;5.468;2022-12-05T08:58:03;146.70;;;34.60;;
13461;SDS011;6803;45.264;5.468;2022-12-05T09:00:33;195.80;;;38.83;;
13461;SDS011;6803;45.264;5.468;2022-12-05T09:03:04;132.63;;;36.93;;
13461;SDS011;6803;45.264;5.468;2022-12-05T09:05:35;83.37;;;27.27;;
13461;SDS011;6803;45.264;5.468;2022-12-05T09:08:06;75.83;;;22.73;;
13461;SDS011;6803;45.264;5.468;2022-12-05T09:10:36;88.10;;;24.30;;
13461;SDS011;6803;45.264;5.468;2022-12-05T09:13:07;78.37;;;24.33;;
13461;SDS011;6803;45.264;5.468;2022-12-05T09:15:39;116.27;;;26.77;;
13461;SDS011;6803;45.264;5.468;2022-12-05T09:18:10;84.70;;;25.53;;
13461;SDS011;6803;45.264;5.468;2022-12-05T09:20:41;86.63;;;26.03;;
13461;SDS011;6803;45.264;5.468;2022-12-05T09:26:04;106.67;;;28.00;;
13461;SDS011;6803;45.264;5.468;2022-12-05T09:28:35;107.23;;;26.93;;
13461;SDS011;6803;45.264;5.468;2022-12-05T09:31:06;184.00;;;31.07;;
13461;SDS011;6803;45.264;5.468;2022-12-05T09:33:39;199.07;;;29.43;;
13461;SDS011;6803;45.264;5.468;2022-12-05T09:36:11;80.23;;;27.63;;
13461;SDS011;6803;45.264;5.468;2022-12-05T09:38:43;104.00;;;28.20;;
13461;SDS011;6803;45.264;5.468;2022-12-05T09:41:17;156.33;;;27.40;;
13461;SDS011;6803;45.264;5.468;2022-12-05T09:43:56;117.77;;;23.77;;
13461;SDS011;6803;45.264;5.468;2022-12-05T09:46:42;109.70;;;22.87;;
13461;SDS011;6803;45.264;5.468;2022-12-05T09:49:03;96.13;;;22.87;;
13461;SDS011;6803;45.264;5.468;2022-12-05T09:51:36;117.90;;;22.37;;
13461;SDS011;6803;45.264;5.468;2022-12-05T09:54:10;136.27;;;24.23;;
13461;SDS011;6803;45.264;5.468;2022-12-05T09:56:43;94.63;;;24.43;;
13461;SDS011;6803;45.264;5.468;2022-12-05T09:59:15;63.30;;;24.43;;
13461;SDS011;6803;45.264;5.468;2022-12-05T10:01:50;114.83;;;23.97;;
13461;SDS011;6803;45.264;5.468;2022-12-05T10:04:43;103.47;;;23.70;;
13461;SDS011;6803;45.264;5.468;2022-12-05T10:07:07;65.23;;;23.57;;
13461;SDS011;6803;45.264;5.468;2022-12-05T10:09:45;59.40;;;24.17;;
13461;SDS011;6803;45.264;5.468;2022-12-05T10:12:32;49.93;;;21.77;;
13461;SDS011;6803;45.264;5.468;2022-12-05T10:15:14;67.03;;;23.83;;
13461;SDS011;6803;45.264;5.468;2022-12-05T10:17:49;85.50;;;25.27;;
13461;SDS011;6803;45.264;5.468;2022-12-05T10:20:25;67.60;;;24.60;;
13461;SDS011;6803;45.264;5.468;2022-12-05T10:22:57;55.87;;;23.40;;
13461;SDS011;6803;45.264;5.468;2022-12-05T10:25:29;60.67;;;26.53;;
13461;SDS011;6803;45.264;5.468;2022-12-05T10:28:05;60.70;;;25.20;;
13461;SDS011;6803;45.264;5.468;2022-12-05T10:30:36;59.83;;;25.70;;
13461;SDS011;6803;45.264;5.468;2022-12-05T10:33:12;50.47;;;23.30;;
13461;SDS011;6803;45.264;5.468;2022-12-05T10:35:45;54.00;;;22.60;;
13461;SDS011;6803;45.264;5.468;2022-12-05T10:38:18;49.47;;;20.60;;
13461;SDS011;6803;45.264;5.468;2022-12-05T10:40:53;54.37;;;20.43;;
13461;SDS011;6803;45.264;5.468;2022-12-05T10:43:25;43.13;;;19.13;;
13461;SDS011;6803;45.264;5.468;2022-12-05T10:45:58;47.83;;;20.70;;
13461;SDS011;6803;45.264;5.468;2022-12-05T10:48:30;50.17;;;21.60;;
13461;SDS011;6803;45.264;5.468;2022-12-05T10:51:05;50.47;;;20.87;;
13461;SDS011;6803;45.264;5.468;2022-12-05T10:53:40;41.13;;;20.60;;
13461;SDS011;6803;45.264;5.468;2022-12-05T10:59:05;51.63;;;22.57;;
13461;SDS011;6803;45.264;5.468;2022-12-05T11:01:42;49.30;;;23.73;;
13461;SDS011;6803;45.264;5.468;2022-12-05T11:04:19;50.53;;;23.70;;
13461;SDS011;6803;45.264;5.468;2022-12-05T11:06:54;48.57;;;23.13;;
13461;SDS011;6803;45.264;5.468;2022-12-05T11:09:28;41.23;;;22.47;;
13461;SDS011;6803;45.264;5.468;2022-12-05T11:12:00;48.27;;;23.10;;
13461;SDS011;6803;45.264;5.468;2022-12-05T11:14:34;44.97;;;21.60;;
13461;SDS011;6803;45.264;5.468;2022-12-05T11:17:05;46.37;;;22.00;;
13461;SDS011;6803;45.264;5.468;2022-12-05T11:19:38;46.50;;;23.80;;
13461;SDS011;6803;45.264;5.468;2022-12-05T11:22:14;45.13;;;23.60;;
13461;SDS011;6803;45.264;5.468;2022-12-05T11:24:42;53.10;;;25.47;;
13461;SDS011;6803;45.264;5.468;2022-12-05T11:27:20;42.33;;;21.87;;
13461;SDS011;6803;45.264;5.468;2022-12-05T11:29:57;44.80;;;23.70;;
13461;SDS011;6803;45.264;5.468;2022-12-05T11:32:29;39.97;;;22.30;;
13461;SDS011;6803;45.264;5.468;2022-12-05T11:35:08;43.57;;;22.83;;
13461;SDS011;6803;45.264;5.468;2022-12-05T11:37:44;44.57;;;24.90;;
13461;SDS011;6803;45.264;5.468;2022-12-05T11:40:17;49.63;;;24.20;;
13461;SDS011;6803;45.264;5.468;2022-12-05T11:42:58;43.30;;;23.67;;
13461;SDS011;6803;45.264;5.468;2022-12-05T11:45:37;45.27;;;23.57;;
13461;SDS011;6803;45.264;5.468;2022-12-05T11:48:18;41.27;;;22.80;;
13461;SDS011;6803;45.264;5.468;2022-12-05T11:51:02;44.70;;;22.17;;
13461;SDS011;6803;45.264;5.468;2022-12-05T11:53:43;46.93;;;23.10;;
13461;SDS011;6803;45.264;5.468;2022-12-05T11:56:30;43.13;;;23.40;;
13461;SDS011;6803;45.264;5.468;2022-12-05T12:02:14;39.03;;;22.27;;
13461;SDS011;6803;45.264;5.468;2022-12-05T12:04:50;40.33;;;21.23;;
13461;SDS011;6803;45.264;5.468;2022-12-05T12:07:27;45.87;;;23.80;;
13461;SDS011;6803;45.264;5.468;2022-12-05T12:10:04;41.73;;;21.87;;
13461;SDS011;6803;45.264;5.468;2022-12-05T12:12:39;41.83;;;23.13;;
13461;SDS011;6803;45.264;5.468;2022-12-05T12:15:22;34.63;;;20.67;;
13461;SDS011;6803;45.264;5.468;2022-12-05T12:17:58;40.67;;;22.97;;
13461;SDS011;6803;45.264;5.468;2022-12-05T12:20:33;45.50;;;23.93;;
13461;SDS011;6803;45.264;5.468;2022-12-05T12:23:13;41.03;;;23.90;;
13461;SDS011;6803;45.264;5.468;2022-12-05T12:25:51;39.77;;;22.53;;
13461;SDS011;6803;45.264;5.468;2022-12-05T12:28:28;41.80;;;22.87;;
13461;SDS011;6803;45.264;5.468;2022-12-05T12:31:06;39.90;;;22.47;;
13461;SDS011;6803;45.264;5.468;2022-12-05T12:33:44;37.37;;;21.10;;
13461;SDS011;6803;45.264;5.468;2022-12-05T12:36:17;38.40;;;20.53;;
13461;SDS011;6803;45.264;5.468;2022-12-05T12:42:02;37.00;;;20.83;;
13461;SDS011;6803;45.264;5.468;2022-12-05T12:45:01;35.93;;;21.73;;
13461;SDS011;6803;45.264;5.468;2022-12-05T12:47:40;40.47;;;20.83;;
13461;SDS011;6803;45.264;5.468;2022-12-05T12:50:16;38.50;;;20.53;;
13461;SDS011;6803;45.264;5.468;2022-12-05T12:53:03;36.17;;;20.87;;
13461;SDS011;6803;45.264;5.468;2022-12-05T12:55:39;35.50;;;20.20;;
13461;SDS011;6803;45.264;5.468;2022-12-05T12:58:15;33.33;;;18.63;;
13461;SDS011;6803;45.264;5.468;2022-12-05T13:00:53;30.30;;;19.27;;
13461;SDS011;6803;45.264;5.468;2022-12-05T13:03:27;32.07;;;18.53;;
13461;SDS011;6803;45.264;5.468;2022-12-05T13:06:03;38.30;;;20.63;;
13461;SDS011;6803;45.264;5.468;2022-12-05T13:08:38;31.83;;;19.63;;
13461;SDS011;6803;45.264;5.468;2022-12-05T13:11:11;29.47;;;19.20;;
13461;SDS011;6803;45.264;5.468;2022-12-05T13:13:45;27.30;;;17.57;;
13461;SDS011;6803;45.264;5.468;2022-12-05T13:16:20;27.90;;;17.30;;
13461;SDS011;6803;45.264;5.468;2022-12-05T13:18:54;29.43;;;16.90;;
13461;SDS011;6803;45.264;5.468;2022-12-05T13:21:25;27.00;;;16.53;;
13461;SDS011;6803;45.264;5.468;2022-12-05T13:23:57;24.93;;;15.73;;
13461;SDS011;6803;45.264;5.468;2022-12-05T13:26:30;23.43;;;14.57;;
13461;SDS011;6803;45.264;5.468;2022-12-05T13:29:02;23.80;;;15.17;;
13461;SDS011;6803;45.264;5.468;2022-12-05T13:31:34;22.40;;;15.10;;
13461;SDS011;6803;45.264;5.468;2022-12-05T13:34:15;22.63;;;15.47;;
13461;SDS011;6803;45.264;5.468;2022-12-05T13:36:58;21.73;;;14.17;;
13461;SDS011;6803;45.264;5.468;2022-12-05T13:39:50;22.50;;;13.43;;
13461;SDS011;6803;45.264;5.468;2022-12-05T13:42:40;22.37;;;13.70;;
13461;SDS011;6803;45.264;5.468;2022-12-05T13:45:15;20.77;;;13.00;;
13461;SDS011;6803;45.264;5.468;2022-12-05T13:47:49;21.83;;;13.73;;
13461;SDS011;6803;45.264;5.468;2022-12-05T13:50:23;19.93;;;12.93;;
13461;SDS011;6803;45.264;5.468;2022-12-05T13:52:57;25.57;;;14.87;;
13461;SDS011;6803;45.264;5.468;2022-12-05T13:55:30;27.67;;;15.73;;
13461;SDS011;6803;45.264;5.468;2022-12-05T13:58:03;31.90;;;15.37;;
13461;SDS011;6803;45.264;5.468;2022-12-05T14:00:46;22.37;;;14.87;;
13461;SDS011;6803;45.264;5.468;2022-12-05T14:03:52;30.50;;;16.47;;
13461;SDS011;6803;45.264;5.468;2022-12-05T14:06:42;28.07;;;17.23;;
13461;SDS011;6803;45.264;5.468;2022-12-05T14:09:27;24.77;;;16.20;;
13461;SDS011;6803;45.264;5.468;2022-12-05T14:15:33;25.17;;;15.40;;
13461;SDS011;6803;45.264;5.468;2022-12-05T14:18:08;40.50;;;16.97;;
13461;SDS011;6803;45.264;5.468;2022-12-05T14:20:52;28.30;;;16.13;;
13461;SDS011;6803;45.264;5.468;2022-12-05T14:23:30;27.93;;;16.80;;
13461;SDS011;6803;45.264;5.468;2022-12-05T14:29:31;37.57;;;16.47;;
13461;SDS011;6803;45.264;5.468;2022-12-05T14:32:13;24.50;;;15.17;;
13461;SDS011;6803;45.264;5.468;2022-12-05T14:34:55;26.27;;;14.87;;
13461;SDS011;6803;45.264;5.468;2022-12-05T14:37:29;25.00;;;15.33;;
13461;SDS011;6803;45.264;5.468;2022-12-05T14:40:03;26.33;;;14.87;;
13461;SDS011;6803;45.264;5.468;2022-12-05T14:42:50;27.23;;;15.10;;
13461;SDS011;6803;45.264;5.468;2022-12-05T14:45:27;25.40;;;15.17;;
13461;SDS011;6803;45.264;5.468;2022-12-05T14:48:02;24.50;;;14.80;;
13461;SDS011;6803;45.264;5.468;2022-12-05T14:50:36;25.77;;;13.77;;
13461;SDS011;6803;45.264;5.468;2022-12-05T14:53:21;30.47;;;15.53;;
13461;SDS011;6803;45.264;5.468;2022-12-05T14:56:15;24.20;;;15.87;;
13461;SDS011;6803;45.264;5.468;2022-12-05T14:58:50;27.43;;;15.40;;
13461;SDS011;6803;45.264;5.468;2022-12-05T15:01:25;24.43;;;14.70;;
13461;SDS011;6803;45.264;5.468;2022-12-05T15:04:00;25.33;;;15.30;;
13461;SDS011;6803;45.264;5.468;2022-12-05T15:06:43;21.87;;;14.97;;
13461;SDS011;6803;45.264;5.468;2022-12-05T15:09:42;26.00;;;15.50;;
13461;SDS011;6803;45.264;5.468;2022-12-05T15:12:22;26.80;;;17.03;;
13461;SDS011;6803;45.264;5.468;2022-12-05T15:17:47;23.70;;;15.47;;
13461;SDS011;6803;45.264;5.468;2022-12-05T15:20:22;25.60;;;15.07;;
13461;SDS011;6803;45.264;5.468;2022-12-05T15:22:56;26.40;;;15.53;;
13461;SDS011;6803;45.264;5.468;2022-12-05T15:25:28;25.60;;;15.37;;
13461;SDS011;6803;45.264;5.468;2022-12-05T15:28:01;25.13;;;14.83;;
13461;SDS011;6803;45.264;5.468;2022-12-05T15:30:34;29.93;;;15.47;;
13461;SDS011;6803;45.264;5.468;2022-12-05T15:33:09;26.63;;;16.00;;
13461;SDS011;6803;45.264;5.468;2022-12-05T15:35:41;25.37;;;16.23;;
13461;SDS011;6803;45.264;5.468;2022-12-05T15:38:16;26.27;;;16.33;;
13461;SDS011;6803;45.264;5.468;2022-12-05T15:40:50;26.83;;;15.73;;
13461;SDS011;6803;45.264;5.468;2022-12-05T15:43:24;29.33;;;16.73;;
13461;SDS011;6803;45.264;5.468;2022-12-05T15:46:07;27.60;;;16.50;;
13461;SDS011;6803;45.264;5.468;2022-12-05T15:48:44;21.50;;;13.97;;
13461;SDS011;6803;45.264;5.468;2022-12-05T15:51:15;27.13;;;15.63;;
13461;SDS011;6803;45.264;5.468;2022-12-05T15:53:49;28.73;;;15.67;;